Time;durP1;ratioP1;P1;durP2;ratioP2;P2;SDS_P1;SDS_P2;PMS_P1;PMS_P2;Temp;Humidity;BMP_temperature;BMP_pressure;BME280_temperature;BME280_humidity;BME280_pressure;Samples;Min_cycle;Max_cycle;Signal;HPM_P1;HPM_P2
2021/10/07 00:00:08;;;;;;;1.52;0.82;;;14.00;96.70;;;;;;4992371;28;20457;-73
2021/10/07 00:02:34;;;;;;;3.53;0.90;;;14.00;96.40;;;;;;4992205;28;20049;-74
2021/10/07 00:04:59;;;;;;;3.80;1.10;;;14.00;96.60;;;;;;4992704;28;20414;-73
2021/10/07 00:07:25;;;;;;;1.95;0.85;;;14.00;96.60;;;;;;4992027;28;20092;-73
2021/10/07 00:09:50;;;;;;;2.97;1.23;;;14.00;96.60;;;;;;4992678;28;20022;-74
2021/10/07 00:12:16;;;;;;;4.65;1.10;;;14.00;96.60;;;;;;4992182;28;20524;-73
2021/10/07 00:14:43;;;;;;;3.05;1.05;;;14.00;96.60;;;;;;4992192;28;20042;-73
2021/10/07 00:17:08;;;;;;;6.00;1.42;;;14.00;96.60;;;;;;4992109;28;20027;-73
2021/10/07 00:19:34;;;;;;;7.40;1.42;;;14.00;96.70;;;;;;4992431;28;20030;-73
2021/10/07 00:22:00;;;;;;;4.75;1.27;;;13.90;96.80;;;;;;4992566;28;20460;-73
2021/10/07 00:24:25;;;;;;;4.70;1.38;;;13.90;96.60;;;;;;4991394;28;20456;-73
2021/10/07 00:26:51;;;;;;;3.88;1.42;;;13.90;96.60;;;;;;4991889;28;20376;-73
2021/10/07 00:31:53;;;;;;;1.67;1.10;;;13.90;96.70;;;;;;4992529;28;20642;-74
2021/10/07 00:34:27;;;;;;;4.68;1.35;;;13.90;96.60;;;;;;4992262;28;20082;-74
2021/10/07 00:37:01;;;;;;;2.88;1.08;;;13.90;96.80;;;;;;4992327;28;20076;-73
2021/10/07 00:39:27;;;;;;;4.03;1.30;;;13.80;97.00;;;;;;4991865;28;20035;-74
2021/10/07 00:41:52;;;;;;;4.65;1.67;;;13.70;97.20;;;;;;4991815;28;20053;-73
2021/10/07 00:44:19;;;;;;;6.78;1.55;;;13.50;97.10;;;;;;4992169;28;20030;-73
2021/10/07 00:46:58;;;;;;;3.97;1.15;;;13.40;97.20;;;;;;4991788;28;20062;-73
2021/10/07 00:49:26;;;;;;;4.65;1.40;;;13.30;97.30;;;;;;4991945;28;20022;-75
2021/10/07 00:51:51;;;;;;;4.37;1.20;;;13.30;97.40;;;;;;4992208;28;20572;-75
2021/10/07 00:54:20;;;;;;;5.95;1.23;;;13.40;97.30;;;;;;4992085;28;20030;-75
2021/10/07 00:56:47;;;;;;;2.58;1.33;;;13.40;97.30;;;;;;4991811;28;20030;-74
2021/10/07 00:59:13;;;;;;;3.00;0.77;;;13.30;97.50;;;;;;4992107;28;20039;-74
2021/10/07 01:01:39;;;;;;;2.25;1.27;;;13.20;97.50;;;;;;4991524;28;20045;-74
2021/10/07 01:04:05;;;;;;;2.45;1.10;;;13.10;97.50;;;;;;4992635;28;20034;-73
2021/10/07 01:06:31;;;;;;;3.30;1.17;;;13.10;97.50;;;;;;4991663;28;20038;-73
2021/10/07 01:08:58;;;;;;;6.40;1.08;;;13.00;97.30;;;;;;4991760;28;20034;-74
2021/10/07 01:11:24;;;;;;;2.78;0.95;;;13.00;97.40;;;;;;4991560;28;20054;-74
2021/10/07 01:13:50;;;;;;;3.20;1.25;;;12.90;97.50;;;;;;4991595;28;20064;-74
2021/10/07 01:16:18;;;;;;;7.82;1.38;;;12.90;97.50;;;;;;4991732;28;20041;-74
2021/10/07 01:18:45;;;;;;;3.88;1.17;;;12.90;97.60;;;;;;4992050;28;20038;-74
2021/10/07 01:21:13;;;;;;;2.33;1.13;;;12.90;97.50;;;;;;4991542;28;20041;-74
2021/10/07 01:23:39;;;;;;;6.75;1.35;;;12.90;97.40;;;;;;4991480;28;20433;-74
2021/10/07 01:26:09;;;;;;;3.08;0.95;;;12.90;97.50;;;;;;4991722;28;20102;-74
2021/10/07 01:28:40;;;;;;;3.35;1.20;;;12.90;97.60;;;;;;4991399;28;20041;-74
2021/10/07 01:31:06;;;;;;;5.00;1.48;;;12.90;97.60;;;;;;4990893;28;20116;-75
2021/10/07 01:33:33;;;;;;;6.95;1.60;;;12.90;97.70;;;;;;4991363;28;20065;-74
2021/10/07 01:35:59;;;;;;;4.07;1.20;;;12.90;97.80;;;;;;4984104;28;20042;-75
2021/10/07 01:38:24;;;;;;;4.65;1.27;;;12.90;97.80;;;;;;4975639;28;20045;-76
2021/10/07 01:40:50;;;;;;;3.40;1.25;;;12.90;97.80;;;;;;4975509;28;20047;-74
2021/10/07 01:43:16;;;;;;;3.97;1.20;;;12.80;97.90;;;;;;4975635;28;20027;-73
2021/10/07 01:45:41;;;;;;;3.08;1.20;;;12.90;97.80;;;;;;4976041;28;20042;-74
2021/10/07 01:48:07;;;;;;;1.67;1.20;;;12.90;97.90;;;;;;4974352;28;20142;-75
2021/10/07 01:50:33;;;;;;;4.22;1.27;;;12.90;98.00;;;;;;4975079;28;20365;-75
2021/10/07 01:52:58;;;;;;;4.07;1.08;;;13.00;98.00;;;;;;4975355;28;20115;-75
2021/10/07 01:55:24;;;;;;;4.10;1.40;;;13.00;97.90;;;;;;4975377;28;20441;-74
2021/10/07 01:57:50;;;;;;;3.20;1.33;;;13.10;97.70;;;;;;4975767;28;20027;-74
2021/10/07 02:00:15;;;;;;;5.07;1.48;;;13.20;97.60;;;;;;4975009;28;20046;-75
2021/10/07 02:02:41;;;;;;;4.50;1.20;;;13.30;97.60;;;;;;4975048;28;20034;-74
2021/10/07 02:05:08;;;;;;;6.28;1.65;;;13.30;97.50;;;;;;4974996;28;20031;-74
2021/10/07 02:07:34;;;;;;;5.60;1.27;;;13.30;97.50;;;;;;4975146;28;20121;-75
2021/10/07 02:10:00;;;;;;;8.02;1.58;;;13.40;97.50;;;;;;4975161;28;20426;-74
2021/10/07 02:12:27;;;;;;;5.20;1.58;;;13.40;97.30;;;;;;4975340;28;20059;-74
2021/10/07 02:14:52;;;;;;;8.07;1.77;;;13.40;97.30;;;;;;4974753;28;20453;-74
2021/10/07 02:17:18;;;;;;;9.68;1.30;;;13.40;97.40;;;;;;4974994;28;20263;-75
2021/10/07 02:19:43;;;;;;;7.60;1.60;;;13.30;97.70;;;;;;4974687;28;20046;-75
2021/10/07 02:22:09;;;;;;;2.40;0.98;;;13.30;97.70;;;;;;4974367;28;20039;-75
2021/10/07 02:24:34;;;;;;;3.92;1.45;;;13.30;97.60;;;;;;4975254;28;20019;-75
2021/10/07 02:27:00;;;;;;;4.18;1.92;;;13.30;97.80;;;;;;4974588;28;20035;-76
2021/10/07 02:29:27;;;;;;;1.42;1.30;;;13.30;97.70;;;;;;4974819;28;20050;-73
2021/10/07 02:31:52;;;;;;;4.53;1.33;;;13.30;97.80;;;;;;4974365;28;20108;-73
2021/10/07 02:34:18;;;;;;;2.88;1.25;;;13.30;97.80;;;;;;4973639;28;20693;-74
2021/10/07 02:36:43;;;;;;;2.78;1.20;;;13.30;97.80;;;;;;4974786;28;20034;-73
2021/10/07 02:39:09;;;;;;;5.55;1.58;;;13.30;97.80;;;;;;4974252;28;20026;-74
2021/10/07 02:41:34;;;;;;;2.17;1.27;;;13.30;97.90;;;;;;4974379;28;20049;-74
2021/10/07 02:44:00;;;;;;;2.20;1.40;;;13.30;97.90;;;;;;4974498;28;20042;-74
2021/10/07 02:46:26;;;;;;;2.78;1.38;;;13.40;97.90;;;;;;4973702;28;20077;-74
2021/10/07 02:48:51;;;;;;;5.82;1.40;;;13.40;97.90;;;;;;4973605;28;20141;-74
2021/10/07 02:51:17;;;;;;;2.83;1.30;;;13.40;97.90;;;;;;4973249;28;20101;-74
2021/10/07 02:53:43;;;;;;;2.35;1.20;;;13.40;97.80;;;;;;4973998;28;20037;-75
2021/10/07 02:56:09;;;;;;;5.05;1.40;;;13.40;97.80;;;;;;4973977;28;20031;-74
2021/10/07 02:58:36;;;;;;;4.32;1.48;;;13.40;97.80;;;;;;4974168;28;20038;-75
2021/10/07 03:01:01;;;;;;;3.30;1.48;;;13.40;97.80;;;;;;4974080;28;20031;-74
2021/10/07 03:03:27;;;;;;;2.50;1.45;;;13.40;97.70;;;;;;4974097;28;20175;-74
2021/10/07 03:05:52;;;;;;;10.85;1.80;;;13.40;97.80;;;;;;4974024;28;20077;-75
2021/10/07 03:08:18;;;;;;;2.58;1.48;;;13.40;97.80;;;;;;4974126;28;20425;-74
2021/10/07 03:10:44;;;;;;;7.95;1.30;;;13.50;97.80;;;;;;4973679;28;20053;-75
2021/10/07 03:13:09;;;;;;;1.80;1.38;;;13.40;97.90;;;;;;4973656;28;20327;-74
2021/10/07 03:15:35;;;;;;;7.15;1.52;;;13.50;97.80;;;;;;4974157;28;20503;-75
2021/10/07 03:18:01;;;;;;;5.97;1.48;;;13.50;97.70;;;;;;4973763;28;20026;-75
2021/10/07 03:20:27;;;;;;;2.70;1.75;;;13.50;97.70;;;;;;4973740;28;20520;-75
2021/10/07 03:22:52;;;;;;;3.45;1.67;;;13.50;97.60;;;;;;4973627;28;20026;-74
2021/10/07 03:25:18;;;;;;;4.55;1.60;;;13.50;97.70;;;;;;4972486;28;20357;-74
2021/10/07 03:27:43;;;;;;;3.03;1.38;;;13.40;97.90;;;;;;4974349;28;20027;-74
2021/10/07 03:30:10;;;;;;;4.40;1.50;;;13.40;97.90;;;;;;4973433;28;20428;-74
2021/10/07 03:32:35;;;;;;;3.08;1.60;;;13.40;97.90;;;;;;4973724;28;20027;-73
2021/10/07 03:35:01;;;;;;;6.85;1.60;;;13.30;97.90;;;;;;4973291;28;20481;-76
2021/10/07 03:37:26;;;;;;;10.55;2.10;;;13.40;97.90;;;;;;4973541;28;20027;-74
2021/10/07 03:39:52;;;;;;;6.97;1.90;;;13.30;97.80;;;;;;4973849;28;20038;-75
2021/10/07 03:42:18;;;;;;;3.42;1.70;;;13.40;97.90;;;;;;4973092;28;20340;-74
2021/10/07 03:44:43;;;;;;;5.32;2.10;;;13.40;97.90;;;;;;4973324;28;20129;-74
2021/10/07 03:47:09;;;;;;;7.47;1.98;;;13.40;97.70;;;;;;4971982;28;20035;-74
2021/10/07 03:49:34;;;;;;;4.72;2.00;;;13.50;97.80;;;;;;4973189;28;20042;-74
2021/10/07 03:52:00;;;;;;;7.15;2.17;;;13.40;97.80;;;;;;4973589;28;20023;-74
2021/10/07 03:54:26;;;;;;;5.00;1.98;;;13.40;97.70;;;;;;4973591;28;20090;-75
2021/10/07 03:56:51;;;;;;;4.72;1.88;;;13.40;97.70;;;;;;4973042;28;20073;-75
2021/10/07 03:59:17;;;;;;;5.03;2.30;;;13.50;97.60;;;;;;4972848;28;20031;-75
2021/10/07 04:01:42;;;;;;;3.75;2.17;;;13.50;97.40;;;;;;4972825;28;20101;-75
2021/10/07 04:04:08;;;;;;;5.47;2.00;;;13.50;97.40;;;;;;4971892;28;20058;-74
2021/10/07 04:06:34;;;;;;;6.25;1.75;;;13.50;97.50;;;;;;4972665;28;20046;-74
2021/10/07 04:08:59;;;;;;;5.75;2.10;;;13.50;97.50;;;;;;4972877;28;20062;-74
2021/10/07 04:11:25;;;;;;;7.55;2.10;;;13.50;97.60;;;;;;4972510;28;20078;-75
2021/10/07 04:13:50;;;;;;;4.97;1.88;;;13.40;97.80;;;;;;4972759;28;20346;-75
2021/10/07 04:16:16;;;;;;;6.28;1.85;;;13.30;97.70;;;;;;4972474;28;20031;-75
2021/10/07 04:18:43;;;;;;;6.30;2.58;;;13.40;97.70;;;;;;4972205;28;20050;-75
2021/10/07 04:21:09;;;;;;;9.97;2.80;;;13.50;97.50;;;;;;4972695;28;20031;-74
2021/10/07 04:23:35;;;;;;;5.60;2.35;;;13.50;97.40;;;;;;4972798;28;20042;-75
2021/10/07 04:26:00;;;;;;;5.28;2.05;;;13.50;97.30;;;;;;4972687;28;20046;-73
2021/10/07 04:28:26;;;;;;;3.75;2.30;;;13.50;97.50;;;;;;4972484;28;20034;-73
2021/10/07 04:30:51;;;;;;;5.68;2.15;;;13.50;97.30;;;;;;4973286;28;20027;-74
2021/10/07 04:33:17;;;;;;;4.90;2.13;;;13.50;97.40;;;;;;4972558;28;20382;-73
2021/10/07 04:35:42;;;;;;;4.57;2.17;;;13.50;97.50;;;;;;4971541;28;20042;-74
2021/10/07 04:38:09;;;;;;;10.45;2.55;;;13.50;97.60;;;;;;4972332;28;20053;-74
2021/10/07 04:40:36;;;;;;;4.63;2.15;;;13.50;97.50;;;;;;4971536;28;20145;-74
2021/10/07 04:43:03;;;;;;;3.95;1.88;;;13.50;97.40;;;;;;4972731;28;20401;-75
2021/10/07 04:45:28;;;;;;;10.32;4.43;;;13.60;97.40;;;;;;4972522;28;20035;-75
2021/10/07 04:47:54;;;;;;;6.22;2.47;;;13.60;97.40;;;;;;4972209;28;20042;-75
2021/10/07 04:50:19;;;;;;;7.07;1.98;;;13.60;97.30;;;;;;4971209;28;20358;-74
2021/10/07 04:52:45;;;;;;;6.75;2.33;;;13.60;97.30;;;;;;4972493;28;20158;-75
2021/10/07 04:55:11;;;;;;;5.40;2.10;;;13.60;97.30;;;;;;4972231;28;20023;-75
2021/10/07 04:57:37;;;;;;;7.80;1.98;;;13.60;97.30;;;;;;4972812;28;20086;-75
2021/10/07 05:00:09;;;;;;;10.40;2.40;;;13.60;97.40;;;;;;4972183;28;20097;-75
2021/10/07 05:02:39;;;;;;;13.02;5.40;;;13.60;97.40;;;;;;4972282;28;20030;-74
2021/10/07 05:05:06;;;;;;;5.45;2.25;;;13.60;97.50;;;;;;4971978;28;20041;-75
2021/10/07 05:07:32;;;;;;;7.90;2.17;;;13.50;97.50;;;;;;4972264;28;20031;-75
2021/10/07 05:09:57;;;;;;;4.95;2.08;;;13.40;97.50;;;;;;4972100;28;20130;-74
2021/10/07 05:12:23;;;;;;;4.70;2.38;;;13.40;97.70;;;;;;4975763;28;20047;-75
2021/10/07 05:14:49;;;;;;;2.65;1.80;;;13.40;97.70;;;;;;4976061;28;20037;-75
2021/10/07 05:17:14;;;;;;;7.53;2.13;;;13.50;97.70;;;;;;4975912;28;20034;-74
2021/10/07 05:19:40;;;;;;;4.05;2.15;;;13.40;97.70;;;;;;4975911;28;20500;-75
2021/10/07 05:22:05;;;;;;;7.15;2.50;;;13.40;97.80;;;;;;4976009;28;20125;-75
2021/10/07 05:24:31;;;;;;;5.68;2.03;;;13.40;97.90;;;;;;4975523;28;20045;-74
2021/10/07 05:26:57;;;;;;;7.20;2.15;;;13.40;97.90;;;;;;4975666;28;20063;-74
2021/10/07 05:29:22;;;;;;;3.88;2.20;;;13.30;97.90;;;;;;4975566;28;20047;-75
2021/10/07 05:31:49;;;;;;;4.40;2.35;;;13.30;98.10;;;;;;4975788;28;20114;-75
2021/10/07 05:34:15;;;;;;;5.50;2.03;;;13.40;98.00;;;;;;4975835;28;20094;-75
2021/10/07 05:36:42;;;;;;;6.18;2.38;;;13.40;97.90;;;;;;4989927;28;20026;-74
2021/10/07 05:39:07;;;;;;;3.05;2.00;;;13.40;97.80;;;;;;4993540;28;20061;-73
2021/10/07 05:41:33;;;;;;;5.03;2.40;;;13.40;97.80;;;;;;4994712;28;20066;-74
2021/10/07 05:43:58;;;;;;;6.68;2.30;;;13.30;97.80;;;;;;4993606;28;20049;-74
2021/10/07 05:46:24;;;;;;;6.63;2.33;;;13.30;97.80;;;;;;4993339;28;20030;-73
2021/10/07 05:48:50;;;;;;;4.85;2.25;;;13.20;97.90;;;;;;4995011;28;20356;-71
2021/10/07 05:51:15;;;;;;;6.53;2.60;;;13.20;98.10;;;;;;4994436;28;20034;-71
2021/10/07 05:53:41;;;;;;;6.65;2.42;;;13.10;98.10;;;;;;4994584;28;20109;-71
2021/10/07 05:56:07;;;;;;;3.15;2.08;;;13.10;98.10;;;;;;4994756;28;20037;-71
2021/10/07 05:58:33;;;;;;;11.45;2.63;;;13.20;98.10;;;;;;4994448;28;20026;-72
2021/10/07 06:00:58;;;;;;;6.72;2.38;;;13.30;98.00;;;;;;4994832;28;20113;-71
2021/10/07 06:03:24;;;;;;;5.15;2.42;;;13.40;98.00;;;;;;4994590;28;20114;-71
2021/10/07 06:05:50;;;;;;;5.00;2.58;;;13.30;97.90;;;;;;4994496;28;20026;-71
2021/10/07 06:08:15;;;;;;;3.83;2.38;;;13.30;97.80;;;;;;4994591;28;20112;-71
2021/10/07 06:10:41;;;;;;;6.35;2.60;;;13.30;97.90;;;;;;4994508;28;20357;-71
2021/10/07 06:13:06;;;;;;;11.30;2.90;;;13.30;97.80;;;;;;4994702;28;20085;-71
2021/10/07 06:15:32;;;;;;;9.25;3.03;;;13.30;97.90;;;;;;4994351;28;20030;-71
2021/10/07 06:17:59;;;;;;;10.88;3.60;;;13.20;97.90;;;;;;4994357;28;20030;-70
2021/10/07 06:20:34;;;;;;;4.50;2.70;;;13.30;97.80;;;;;;4994359;28;20038;-71
2021/10/07 06:23:05;;;;;;;6.40;2.50;;;13.30;97.80;;;;;;4993018;28;20027;-71
2021/10/07 06:25:34;;;;;;;7.68;3.00;;;13.20;97.90;;;;;;4993797;28;20092;-71
2021/10/07 06:28:03;;;;;;;6.80;3.17;;;13.10;98.00;;;;;;4994417;28;20029;-73
2021/10/07 06:30:29;;;;;;;8.82;3.13;;;13.20;98.10;;;;;;4993673;28;20477;-72
2021/10/07 06:32:57;;;;;;;10.80;3.90;;;13.20;98.10;;;;;;4993502;28;20034;-71
2021/10/07 06:35:23;;;;;;;9.93;3.63;;;13.20;98.10;;;;;;4993618;28;20034;-71
2021/10/07 06:37:48;;;;;;;9.68;3.30;;;13.20;98.00;;;;;;4993696;28;20524;-71
2021/10/07 06:40:15;;;;;;;8.27;3.45;;;13.10;98.10;;;;;;4993589;28;20030;-71
2021/10/07 06:42:41;;;;;;;11.68;4.93;;;13.00;98.10;;;;;;4993877;28;20026;-72
2021/10/07 06:45:08;;;;;;;6.68;3.65;;;13.10;98.10;;;;;;4993245;28;20125;-72
2021/10/07 06:47:34;;;;;;;5.95;3.20;;;13.20;98.00;;;;;;4993844;28;20037;-73
2021/10/07 06:50:01;;;;;;;5.32;3.20;;;13.30;97.90;;;;;;4993616;28;20037;-72
2021/10/07 06:52:26;;;;;;;4.30;2.80;;;13.30;97.90;;;;;;4992337;28;20129;-72
2021/10/07 06:54:52;;;;;;;8.90;3.42;;;13.20;98.00;;;;;;4992987;28;20117;-73
2021/10/07 06:57:18;;;;;;;5.40;2.90;;;13.20;98.10;;;;;;4993182;28;20046;-73
2021/10/07 06:59:43;;;;;;;8.23;3.05;;;13.20;98.10;;;;;;4993538;28;20521;-73
2021/10/07 07:02:09;;;;;;;10.00;3.22;;;13.20;98.10;;;;;;4993190;28;20050;-73
2021/10/07 07:04:35;;;;;;;7.82;3.00;;;13.20;98.00;;;;;;4993077;28;20088;-73
2021/10/07 07:07:00;;;;;;;10.13;3.65;;;13.30;98.00;;;;;;4993700;28;20496;-73
2021/10/07 07:09:26;;;;;;;12.07;7.03;;;13.30;98.00;;;;;;4991736;28;20069;-73
2021/10/07 07:11:51;;;;;;;7.53;3.55;;;13.30;98.00;;;;;;4992744;28;20512;-75
2021/10/07 07:14:18;;;;;;;6.65;3.17;;;13.30;98.00;;;;;;4992123;28;20460;-72
2021/10/07 07:16:44;;;;;;;6.50;3.40;;;13.30;97.90;;;;;;4992862;28;20042;-73
2021/10/07 07:19:09;;;;;;;10.40;3.35;;;13.40;97.90;;;;;;4993039;28;20038;-72
2021/10/07 07:21:35;;;;;;;8.30;3.72;;;13.50;97.90;;;;;;4991806;28;20067;-73
2021/10/07 07:24:02;;;;;;;9.00;5.10;;;13.50;97.90;;;;;;4993162;28;20109;-73
2021/10/07 07:26:29;;;;;;;14.65;5.90;;;13.50;97.90;;;;;;4992605;28;20128;-74
2021/10/07 07:28:55;;;;;;;7.32;4.15;;;13.60;97.90;;;;;;4992614;28;20031;-73
2021/10/07 07:31:22;;;;;;;8.27;4.05;;;13.50;97.80;;;;;;4992373;28;20460;-73
2021/10/07 07:33:48;;;;;;;8.27;3.33;;;13.60;97.80;;;;;;4992751;28;20465;-73
2021/10/07 07:36:17;;;;;;;9.95;3.42;;;13.60;97.80;;;;;;4991839;28;20180;-74
2021/10/07 07:38:43;;;;;;;10.48;3.95;;;13.70;97.80;;;;;;4992041;28;20117;-72
2021/10/07 07:41:10;;;;;;;8.82;3.88;;;13.70;97.70;;;;;;4991667;28;20173;-73
2021/10/07 07:43:36;;;;;;;15.20;7.35;;;13.80;97.60;;;;;;4991975;28;20041;-74
2021/10/07 07:46:02;;;;;;;21.50;8.43;;;13.90;97.50;;;;;;4992408;28;20018;-74
2021/10/07 07:48:28;;;;;;;13.02;5.93;;;13.90;97.50;;;;;;4991808;28;20066;-74
2021/10/07 07:50:54;;;;;;;12.13;5.63;;;14.00;97.50;;;;;;4991563;28;20030;-73
2021/10/07 07:53:20;;;;;;;8.52;4.25;;;14.10;97.50;;;;;;4991801;28;20030;-74
2021/10/07 07:55:45;;;;;;;9.10;4.45;;;14.10;97.50;;;;;;4991549;28;20038;-73
2021/10/07 07:58:12;;;;;;;7.43;3.13;;;14.20;97.40;;;;;;4990528;28;20338;-73
2021/10/07 08:00:38;;;;;;;8.45;3.72;;;14.30;97.40;;;;;;4992216;28;20044;-73
2021/10/07 08:03:04;;;;;;;13.25;3.75;;;14.30;97.30;;;;;;4991569;28;20105;-74
2021/10/07 08:05:29;;;;;;;9.95;4.35;;;14.40;97.30;;;;;;4991596;28;20464;-74
2021/10/07 08:07:55;;;;;;;20.90;10.98;;;14.40;97.10;;;;;;4990268;28;20133;-73
2021/10/07 08:10:21;;;;;;;12.32;7.07;;;14.40;97.10;;;;;;4991155;28;20323;-74
2021/10/07 08:12:47;;;;;;;6.43;3.88;;;14.50;97.00;;;;;;4990499;28;20050;-72
2021/10/07 08:15:13;;;;;;;6.80;3.75;;;14.60;97.00;;;;;;4991345;28;20338;-73
2021/10/07 08:17:40;;;;;;;10.35;4.53;;;14.60;97.00;;;;;;4990273;28;20036;-74
2021/10/07 08:20:08;;;;;;;10.95;4.47;;;14.60;97.30;;;;;;4991569;28;20431;-72
2021/10/07 08:22:33;;;;;;;8.43;4.65;;;14.60;97.10;;;;;;4991317;28;20045;-72
2021/10/07 08:24:59;;;;;;;6.68;4.28;;;14.70;96.80;;;;;;4991970;28;20094;-73
2021/10/07 08:27:26;;;;;;;10.68;5.40;;;14.70;96.70;;;;;;4991162;28;20042;-74
2021/10/07 08:29:53;;;;;;;10.53;4.87;;;14.80;96.80;;;;;;4991047;28;20058;-73
2021/10/07 08:32:19;;;;;;;8.48;4.40;;;14.90;96.90;;;;;;4990840;28;20742;-73
2021/10/07 08:34:44;;;;;;;10.77;5.57;;;15.00;96.70;;;;;;4991059;28;20038;-72
2021/10/07 08:37:10;;;;;;;11.10;7.03;;;15.10;96.50;;;;;;4991326;28;20041;-73
2021/10/07 08:39:37;;;;;;;16.85;6.35;;;15.30;96.50;;;;;;4991670;28;20033;-74
2021/10/07 08:42:03;;;;;;;11.15;4.05;;;15.70;97.00;;;;;;4991137;28;20093;-74
2021/10/07 08:44:29;;;;;;;7.88;3.67;;;16.40;96.20;;;;;;4990992;28;20057;-73
2021/10/07 08:46:55;;;;;;;10.15;4.13;;;17.00;94.60;;;;;;4994903;28;20034;-73
2021/10/07 08:49:23;;;;;;;5.22;3.13;;;17.30;94.70;;;;;;4994094;28;20018;-74
2021/10/07 08:51:50;;;;;;;8.32;3.65;;;17.80;94.10;;;;;;4995424;28;20026;-74
2021/10/07 08:54:16;;;;;;;9.00;3.50;;;18.40;93.70;;;;;;4994943;28;20026;-74
2021/10/07 08:56:42;;;;;;;7.68;2.97;;;19.00;92.60;;;;;;4994507;28;20377;-75
2021/10/07 08:59:07;;;;;;;5.25;3.75;;;19.70;91.90;;;;;;4994857;28;20045;-75
2021/10/07 09:01:45;;;;;;;4.63;2.83;;;20.30;91.00;;;;;;4994736;28;20120;-75
2021/10/07 09:04:20;;;;;;;4.50;3.03;;;20.70;90.10;;;;;;4994782;28;20101;-74
2021/10/07 09:06:50;;;;;;;7.32;2.80;;;21.30;91.20;;;;;;4995046;28;20023;-74
2021/10/07 09:09:17;;;;;;;6.70;3.00;;;21.60;86.90;;;;;;4994784;28;20054;-73
2021/10/07 09:12:08;;;;;;;6.53;3.23;;;21.90;86.60;;;;;;4994759;28;20062;-72
2021/10/07 09:14:38;;;;;;;7.65;3.13;;;22.60;84.80;;;;;;4994410;28;20327;-72
2021/10/07 09:17:06;;;;;;;27.80;17.05;;;23.10;84.50;;;;;;4994327;28;20431;-72
2021/10/07 09:19:39;;;;;;;13.43;7.32;;;23.60;81.10;;;;;;4994510;28;20476;-73
2021/10/07 09:22:33;;;;;;;5.60;3.28;;;24.40;79.10;;;;;;4994759;28;20019;-73
2021/10/07 09:25:00;;;;;;;7.03;2.25;;;25.10;74.80;;;;;;4994596;28;20451;-73
2021/10/07 09:27:34;;;;;;;4.07;2.50;;;26.00;75.40;;;;;;4993335;28;20031;-73
2021/10/07 09:30:00;;;;;;;3.78;2.35;;;26.40;71.40;;;;;;4993102;28;20476;-72
2021/10/07 09:32:31;;;;;;;3.63;2.22;;;26.40;69.80;;;;;;4994446;28;20034;-72
2021/10/07 09:35:02;;;;;;;7.80;2.55;;;25.20;69.90;;;;;;4994238;28;20030;-72
2021/10/07 09:37:31;;;;;;;6.88;2.92;;;24.30;70.50;;;;;;4993864;28;20168;-71
2021/10/07 09:39:59;;;;;;;3.30;2.28;;;23.90;73.70;;;;;;4993481;28;20121;-73
2021/10/07 09:42:26;;;;;;;;;;;24.80;73.70;;;;;;4993463;28;20038;-72
2021/10/07 09:44:58;;;;;;;;;;;25.60;71.30;;;;;;4994458;28;20005;-71
2021/10/07 09:47:43;;;;;;;3.83;2.42;;;25.40;70.30;;;;;;4994013;28;19940;-72
2021/10/07 09:50:30;;;;;;;8.10;3.63;;;25.20;70.30;;;;;;4993982;28;20432;-71
2021/10/07 09:53:07;;;;;;;5.40;2.58;;;24.70;69.50;;;;;;4993805;28;20464;-72
2021/10/07 09:55:42;;;;;;;3.55;2.42;;;23.90;69.20;;;;;;4993682;28;20065;-72
2021/10/07 09:58:17;;;;;;;2.97;1.83;;;23.60;71.50;;;;;;4994136;28;20409;-72
2021/10/07 10:00:46;;;;;;;4.18;2.08;;;23.30;71.40;;;;;;4993887;28;20050;-72
2021/10/07 10:03:14;;;;;;;3.85;1.80;;;22.70;72.00;;;;;;4993857;28;20481;-72
2021/10/07 10:05:41;;;;;;;4.60;1.75;;;22.20;72.20;;;;;;4993836;28;20114;-73
2021/10/07 10:08:11;;;;;;;2.05;1.25;;;22.50;72.50;;;;;;4993687;28;20042;-72
2021/10/07 10:10:39;;;;;;;5.57;2.38;;;22.40;71.10;;;;;;4992157;28;20034;-73
2021/10/07 10:13:06;;;;;;;3.47;1.92;;;22.10;71.80;;;;;;4993913;28;20053;-72
2021/10/07 10:15:34;;;;;;;1.92;1.10;;;22.00;72.60;;;;;;4993583;28;20046;-74
2021/10/07 10:18:14;;;;;;;1.45;1.00;;;21.40;72.70;;;;;;4993690;28;20101;-73
2021/10/07 10:20:52;;;;;;;5.78;1.58;;;21.20;73.80;;;;;;4993737;28;20488;-72
2021/10/07 10:23:24;;;;;;;;;;;20.90;73.90;;;;;;4993918;28;20035;-73
2021/10/07 10:26:12;;;;;;;6.78;1.67;;;21.00;75.10;;;;;;4993511;28;20005;-73
2021/10/07 10:28:49;;;;;;;5.25;2.20;;;21.10;76.00;;;;;;4993051;28;20027;-73
2021/10/07 10:31:23;;;;;;;6.07;2.05;;;21.50;75.80;;;;;;4993160;28;20018;-73
2021/10/07 10:33:49;;;;;;;5.18;2.45;;;21.80;76.70;;;;;;4993539;28;20045;-73
2021/10/07 10:36:31;;;;;;;5.50;2.58;;;21.50;75.20;;;;;;4993210;28;20080;-70
2021/10/07 10:39:05;;;;;;;6.13;3.08;;;21.30;77.90;;;;;;4993077;28;20077;-70
2021/10/07 10:42:13;;;;;;;4.53;1.67;;;21.40;79.10;;;;;;4993051;28;20042;-70
2021/10/07 10:44:54;;;;;;;2.33;1.58;;;21.40;77.30;;;;;;4991618;28;20037;-70
2021/10/07 10:47:22;;;;;;;2.83;1.65;;;21.30;75.90;;;;;;4993375;28;20125;-70
2021/10/07 10:49:50;;;;;;;;;;;21.00;75.10;;;;;;4993625;28;20520;-72
2021/10/07 10:52:35;;;;;;;4.40;2.50;;;20.70;75.50;;;;;;4993024;28;19910;-70
2021/10/07 10:55:12;;;;;;;3.25;2.03;;;20.30;76.20;;;;;;4992426;28;20444;-70
2021/10/07 10:57:46;;;;;;;6.97;2.08;;;20.10;76.60;;;;;;4993282;28;20053;-72
2021/10/07 11:00:33;;;;;;;5.95;1.77;;;20.00;77.40;;;;;;4992780;28;20034;-71
2021/10/07 11:03:11;;;;;;;6.10;2.00;;;20.00;77.80;;;;;;4992810;28;20034;-72
2021/10/07 11:05:41;;;;;;;;;;;20.10;78.30;;;;;;4993099;28;20038;-71
2021/10/07 11:08:09;;;;;;;6.72;1.55;;;20.40;78.10;;;;;;4992278;28;20375;-71
2021/10/07 11:10:50;;;;;;;3.83;1.75;;;20.50;78.00;;;;;;4992451;28;20106;-73
2021/10/07 11:13:21;;;;;;;3.20;1.77;;;20.80;76.60;;;;;;4992313;28;20507;-74
2021/10/07 11:15:58;;;;;;;4.47;1.80;;;20.70;76.30;;;;;;4992529;28;20216;-74
2021/10/07 11:18:28;;;;;;;6.50;2.25;;;20.50;76.70;;;;;;4992563;28;20031;-74
2021/10/07 11:20:58;;;;;;;4.72;2.78;;;20.20;76.80;;;;;;4992147;28;20130;-73
2021/10/07 11:23:24;;;;;;;7.90;2.90;;;20.30;77.00;;;;;;4992276;28;20038;-73
2021/10/07 11:25:54;;;;;;;3.65;2.70;;;20.10;77.20;;;;;;4992049;28;20030;-73
2021/10/07 11:28:29;;;;;;;6.20;3.63;;;20.20;77.20;;;;;;4992121;28;20109;-74
2021/10/07 11:31:09;;;;;;;4.00;2.20;;;20.10;77.20;;;;;;4992775;28;20042;-71
2021/10/07 11:33:46;;;;;;;3.75;2.08;;;20.00;77.30;;;;;;4992464;28;20078;-72
2021/10/07 11:36:15;;;;;;;3.60;1.75;;;20.00;77.80;;;;;;4992239;28;20030;-73
2021/10/07 11:38:44;;;;;;;6.72;2.20;;;19.80;78.60;;;;;;4991947;28;20177;-72
2021/10/07 11:41:12;;;;;;;3.15;1.60;;;19.50;79.00;;;;;;4991944;28;20056;-74
2021/10/07 11:43:39;;;;;;;3.15;2.00;;;19.50;79.50;;;;;;4991610;28;20034;-74
2021/10/07 11:46:08;;;;;;;4.72;1.63;;;19.40;80.00;;;;;;4992558;28;20392;-72
2021/10/07 11:48:33;;;;;;;5.65;2.15;;;19.30;80.20;;;;;;4992066;28;20101;-72
2021/10/07 11:51:06;;;;;;;4.28;1.85;;;19.20;80.80;;;;;;4991512;28;20140;-74
2021/10/07 11:53:37;;;;;;;3.65;2.10;;;19.10;80.80;;;;;;4991706;28;20081;-74
2021/10/07 11:56:26;;;;;;;4.93;2.03;;;19.10;80.80;;;;;;4991616;28;20354;-74
2021/10/07 11:58:56;;;;;;;2.42;1.70;;;19.10;80.20;;;;;;4991634;28;20096;-72
2021/10/07 12:01:24;;;;;;;3.80;2.47;;;19.00;80.80;;;;;;4991753;28;20441;-73
2021/10/07 12:03:54;;;;;;;3.58;1.88;;;18.90;81.60;;;;;;4991064;28;20113;-73
2021/10/07 12:06:19;;;;;;;6.97;3.35;;;18.90;82.00;;;;;;4991705;28;20035;-74
2021/10/07 12:08:47;;;;;;;4.65;2.40;;;19.00;82.20;;;;;;4991486;28;20026;-73
2021/10/07 12:11:15;;;;;;;6.97;3.85;;;18.90;82.30;;;;;;4991630;28;20061;-72
2021/10/07 12:13:45;;;;;;;5.60;2.38;;;19.00;81.70;;;;;;4991588;28;20034;-72
2021/10/07 12:16:30;;;;;;;2.47;1.73;;;19.00;81.20;;;;;;4991593;28;20026;-73
2021/10/07 12:18:59;;;;;;;3.15;1.90;;;19.00;81.70;;;;;;4990451;28;20361;-72
2021/10/07 12:21:27;;;;;;;3.67;1.77;;;18.90;82.20;;;;;;4991086;28;20341;-72
2021/10/07 12:24:10;;;;;;;;;;;19.00;82.50;;;;;;4992088;28;20679;-72
2021/10/07 12:26:49;;;;;;;3.95;1.67;;;18.80;82.70;;;;;;4991190;28;19928;-72
2021/10/07 12:29:31;;;;;;;4.10;2.70;;;18.90;82.60;;;;;;4991321;28;20088;-73
2021/10/07 12:32:02;;;;;;;5.03;2.47;;;18.90;82.40;;;;;;4991332;28;20041;-74
2021/10/07 12:34:34;;;;;;;9.93;6.05;;;18.80;81.90;;;;;;4990282;28;20034;-72
2021/10/07 12:37:01;;;;;;;4.75;2.80;;;18.80;82.40;;;;;;4991781;28;20015;-73
2021/10/07 12:39:26;;;;;;;5.63;1.90;;;18.60;82.10;;;;;;4991306;28;20054;-73
2021/10/07 12:41:56;;;;;;;3.20;1.80;;;18.60;82.50;;;;;;4991284;28;20120;-73
2021/10/07 12:44:24;;;;;;;5.10;1.40;;;18.70;82.60;;;;;;4991430;28;20469;-72
2021/10/07 12:46:53;;;;;;;5.20;2.67;;;18.90;82.60;;;;;;4991206;28;20053;-72
2021/10/07 12:49:31;;;;;;;2.88;1.83;;;18.90;82.20;;;;;;4991205;28;20034;-72
2021/10/07 12:51:58;;;;;;;5.47;2.95;;;18.90;81.70;;;;;;4991693;28;20030;-72
2021/10/07 12:54:28;;;;;;;6.55;2.03;;;18.90;81.70;;;;;;4991277;28;20042;-74